sensor_id;sensor_type;location;lat;lon;timestamp;temperature;humidity
752;DHT22;360;48.764;9.164;2022-12-18T09:36:44;-4.90;1.00
752;DHT22;360;48.764;9.164;2022-12-18T09:39:11;-3.70;1.00
752;DHT22;360;48.764;9.164;2022-12-18T09:41:44;-3.60;99.90
752;DHT22;360;48.764;9.164;2022-12-18T09:44:20;-3.30;1.00
752;DHT22;360;48.764;9.164;2022-12-18T09:46:53;-3.70;1.00
752;DHT22;360;48.764;9.164;2022-12-18T09:49:24;-4.00;99.90
752;DHT22;360;48.764;9.164;2022-12-18T09:51:57;-4.10;1.00
752;DHT22;360;48.764;9.164;2022-12-18T09:54:30;-4.10;45.60
752;DHT22;360;48.764;9.164;2022-12-18T09:56:59;-4.10;99.90
752;DHT22;360;48.764;9.164;2022-12-18T09:59:31;-4.10;99.90
752;DHT22;360;48.764;9.164;2022-12-18T10:01:58;-4.20;99.90
752;DHT22;360;48.764;9.164;2022-12-18T10:04:27;-4.00;99.90
752;DHT22;360;48.764;9.164;2022-12-18T10:07:02;-3.80;1.00
752;DHT22;360;48.764;9.164;2022-12-18T10:09:36;-3.90;1.00
752;DHT22;360;48.764;9.164;2022-12-18T10:12:09;-3.70;99.90
752;DHT22;360;48.764;9.164;2022-12-18T10:14:45;-3.60;99.90
752;DHT22;360;48.764;9.164;2022-12-18T10:17:22;-3.40;99.90
752;DHT22;360;48.764;9.164;2022-12-18T10:19:55;-3.50;99.90
752;DHT22;360;48.764;9.164;2022-12-18T10:22:39;-3.50;99.90
752;DHT22;360;48.764;9.164;2022-12-18T10:25:19;-3.30;99.90
752;DHT22;360;48.764;9.164;2022-12-18T10:27:47;-3.30;99.90
752;DHT22;360;48.764;9.164;2022-12-18T10:30:16;-3.30;99.90
752;DHT22;360;48.764;9.164;2022-12-18T10:32:43;-3.20;99.90
752;DHT22;360;48.764;9.164;2022-12-18T10:35:18;-3.20;99.90
752;DHT22;360;48.764;9.164;2022-12-18T10:38:19;-3.10;99.90
752;DHT22;360;48.764;9.164;2022-12-18T10:40:52;-3.00;99.90
752;DHT22;360;48.764;9.164;2022-12-18T10:43:21;-2.90;99.90
752;DHT22;360;48.764;9.164;2022-12-18T10:46:05;-2.90;99.90
752;DHT22;360;48.764;9.164;2022-12-18T10:48:47;-2.80;99.90
752;DHT22;360;48.764;9.164;2022-12-18T10:51:20;-2.70;1.00
752;DHT22;360;48.764;9.164;2022-12-18T10:53:54;-2.50;1.00
752;DHT22;360;48.764;9.164;2022-12-18T10:56:23;-2.40;1.00
752;DHT22;360;48.764;9.164;2022-12-18T10:58:56;-2.30;1.00
752;DHT22;360;48.764;9.164;2022-12-18T11:01:24;-2.20;1.00
752;DHT22;360;48.764;9.164;2022-12-18T11:04:00;-2.20;99.90
752;DHT22;360;48.764;9.164;2022-12-18T11:06:27;-2.00;99.90
752;DHT22;360;48.764;9.164;2022-12-18T11:09:00;-2.00;99.90
752;DHT22;360;48.764;9.164;2022-12-18T11:11:27;-1.90;99.90
752;DHT22;360;48.764;9.164;2022-12-18T11:13:59;-1.90;99.90
752;DHT22;360;48.764;9.164;2022-12-18T11:16:28;-1.90;99.90
752;DHT22;360;48.764;9.164;2022-12-18T11:19:16;-1.70;94.30
752;DHT22;360;48.764;9.164;2022-12-18T11:21:46;-1.60;1.00
752;DHT22;360;48.764;9.164;2022-12-18T11:24:22;-1.50;99.90
752;DHT22;360;48.764;9.164;2022-12-18T11:26:51;-1.50;1.00
752;DHT22;360;48.764;9.164;2022-12-18T11:29:23;-1.70;1.00
752;DHT22;360;48.764;9.164;2022-12-18T11:31:50;-1.70;99.90
752;DHT22;360;48.764;9.164;2022-12-18T11:34:22;-1.80;99.90
752;DHT22;360;48.764;9.164;2022-12-18T11:36:52;-1.80;99.90
752;DHT22;360;48.764;9.164;2022-12-18T11:39:27;-1.80;99.90
752;DHT22;360;48.764;9.164;2022-12-18T11:42:03;-1.80;99.90
752;DHT22;360;48.764;9.164;2022-12-18T11:44:41;-1.70;99.90
752;DHT22;360;48.764;9.164;2022-12-18T11:47:15;-1.70;92.10
752;DHT22;360;48.764;9.164;2022-12-18T22:01:01;-1.60;99.90
752;DHT22;360;48.764;9.164;2022-12-18T22:03:28;-0.20;99.90
752;DHT22;360;48.764;9.164;2022-12-18T22:05:56;-0.10;99.90
752;DHT22;360;48.764;9.164;2022-12-18T22:08:24;-0.10;99.90
752;DHT22;360;48.764;9.164;2022-12-18T22:10:52;-0.10;99.90
752;DHT22;360;48.764;9.164;2022-12-18T22:13:19;-0.20;1.00
752;DHT22;360;48.764;9.164;2022-12-18T22:15:45;-0.20;42.30
752;DHT22;360;48.764;9.164;2022-12-18T22:18:12;-0.10;99.90
752;DHT22;360;48.764;9.164;2022-12-18T22:20:39;0.00;1.00
752;DHT22;360;48.764;9.164;2022-12-18T22:23:06;-0.10;99.90
752;DHT22;360;48.764;9.164;2022-12-18T22:25:34;0.00;1.00
752;DHT22;360;48.764;9.164;2022-12-18T22:28:02;0.00;99.90
752;DHT22;360;48.764;9.164;2022-12-18T22:30:47;0.10;99.90
752;DHT22;360;48.764;9.164;2022-12-18T22:33:13;0.10;1.00
752;DHT22;360;48.764;9.164;2022-12-18T22:35:40;0.10;1.00
752;DHT22;360;48.764;9.164;2022-12-18T22:38:07;0.10;1.00
752;DHT22;360;48.764;9.164;2022-12-18T22:40:34;0.30;1.00
752;DHT22;360;48.764;9.164;2022-12-18T22:43:02;0.20;99.90
752;DHT22;360;48.764;9.164;2022-12-18T23:34:39;0.10;1.00
752;DHT22;360;48.764;9.164;2022-12-18T23:37:06;0.70;99.90
752;DHT22;360;48.764;9.164;2022-12-18T23:39:33;0.80;55.80
752;DHT22;360;48.764;9.164;2022-12-18T23:41:59;0.90;1.00
752;DHT22;360;48.764;9.164;2022-12-18T23:44:27;0.80;99.90
752;DHT22;360;48.764;9.164;2022-12-18T23:46:54;0.80;1.00
752;DHT22;360;48.764;9.164;2022-12-18T23:49:21;0.90;1.00
752;DHT22;360;48.764;9.164;2022-12-18T23:51:49;1.00;1.00
752;DHT22;360;48.764;9.164;2022-12-18T23:54:16;1.00;1.00
752;DHT22;360;48.764;9.164;2022-12-18T23:56:43;0.90;1.00
752;DHT22;360;48.764;9.164;2022-12-18T23:59:09;1.00;26.30
